Time;durP1;ratioP1;P1;durP2;ratioP2;P2;SDS_P1;SDS_P2;PMS_P1;PMS_P2;Temp;Humidity;BMP_temperature;BMP_pressure;BME280_temperature;BME280_humidity;BME280_pressure;Samples;Min_cycle;Max_cycle;Signal;HPM_P1;HPM_P2
2022/03/23 00:01:09;;;;;;;46.67;22.63;;;;;;;;;;5038673;28;20025;-89
2022/03/23 00:03:37;;;;;;;37.00;20.40;;;;;;;;;;5038713;28;20104;-89
2022/03/23 00:06:03;;;;;;;49.22;25.27;;;;;;;;;;5038492;28;20108;-89
2022/03/23 00:08:30;;;;;;;42.40;23.63;;;;;;;;;;5038495;28;20021;-89
2022/03/23 00:10:56;;;;;;;42.05;23.38;;;;;;;;;;5037868;28;20041;-90
2022/03/23 00:13:22;;;;;;;49.53;24.58;;;;;;;;;;5038589;28;20053;-89
2022/03/23 00:15:49;;;;;;;57.53;27.58;;;;;;;;;;5038383;28;20025;-89
2022/03/23 00:18:15;;;;;;;49.08;24.90;;;;;;;;;;5037401;28;20013;-89
2022/03/23 00:20:41;;;;;;;49.30;22.90;;;;;;;;;;5037858;28;20411;-89
2022/03/23 00:23:09;;;;;;;46.63;24.45;;;;;;;;;;5038501;28;20112;-89
2022/03/23 00:25:36;;;;;;;38.05;21.75;;;;;;;;;;5037127;28;20467;-89
2022/03/23 00:28:03;;;;;;;35.60;18.92;;;;;;;;;;5036853;28;20029;-89
2022/03/23 00:30:29;;;;;;;34.65;18.35;;;;;;;;;;5037309;28;20068;-89
2022/03/23 00:32:56;;;;;;;35.90;19.45;;;;;;;;;;5038153;28;20447;-89
2022/03/23 00:35:22;;;;;;;40.65;21.25;;;;;;;;;;5037938;28;20374;-90
2022/03/23 00:37:50;;;;;;;39.50;20.45;;;;;;;;;;5037208;28;20033;-88
2022/03/23 00:40:16;;;;;;;40.72;19.80;;;;;;;;;;5036907;28;20412;-89
2022/03/23 00:42:42;;;;;;;36.63;20.05;;;;;;;;;;5037914;28;20036;-89
2022/03/23 00:45:11;;;;;;;42.53;19.83;;;;;;;;;;5038023;28;20104;-89
2022/03/23 00:47:38;;;;;;;41.50;21.08;;;;;;;;;;5037077;28;20033;-89
2022/03/23 00:50:05;;;;;;;40.92;21.52;;;;;;;;;;5037793;28;20514;-89
2022/03/23 00:52:31;;;;;;;50.83;23.73;;;;;;;;;;5037876;28;20022;-89
2022/03/23 00:54:57;;;;;;;40.38;21.70;;;;;;;;;;5036887;28;20498;-89
2022/03/23 00:57:23;;;;;;;43.72;24.20;;;;;;;;;;5037336;28;20032;-88
2022/03/23 00:59:49;;;;;;;42.60;23.77;;;;;;;;;;5036767;28;20442;-89
2022/03/23 01:02:16;;;;;;;50.28;25.80;;;;;;;;;;5037627;28;20301;-89
2022/03/23 01:04:42;;;;;;;50.50;26.52;;;;;;;;;;5037504;28;20021;-89
2022/03/23 01:07:08;;;;;;;51.47;26.52;;;;;;;;;;5036401;28;20063;-89
2022/03/23 01:09:34;;;;;;;51.88;25.13;;;;;;;;;;5036752;28;20029;-89
2022/03/23 01:12:00;;;;;;;49.15;24.05;;;;;;;;;;5036401;28;20041;-91
2022/03/23 01:14:27;;;;;;;46.13;23.42;;;;;;;;;;5037513;28;20029;-89
2022/03/23 01:16:53;;;;;;;56.47;26.98;;;;;;;;;;5037500;28;20025;-89
2022/03/23 01:19:22;;;;;;;46.25;24.15;;;;;;;;;;5037418;28;20312;-90
2022/03/23 01:21:48;;;;;;;46.95;26.95;;;;;;;;;;5037475;28;20021;-90
2022/03/23 01:24:15;;;;;;;45.85;25.52;;;;;;;;;;5037361;28;20312;-89
2022/03/23 01:26:41;;;;;;;59.67;29.83;;;;;;;;;;5037499;28;20041;-89
2022/03/23 01:29:08;;;;;;;63.45;32.55;;;;;;;;;;5037219;28;20072;-90
2022/03/23 01:31:34;;;;;;;62.23;31.40;;;;;;;;;;5037002;28;20423;-90
2022/03/23 01:34:00;;;;;;;65.22;32.20;;;;;;;;;;5037152;28;20029;-89
2022/03/23 01:36:30;;;;;;;56.90;31.02;;;;;;;;;;5037782;28;20304;-90
2022/03/23 01:38:57;;;;;;;60.08;31.25;;;;;;;;;;5036523;28;20423;-91
2022/03/23 01:41:24;;;;;;;62.97;33.78;;;;;;;;;;5037534;28;20045;-89
2022/03/23 01:43:50;;;;;;;67.65;33.70;;;;;;;;;;5037364;28;20028;-90
2022/03/23 01:46:17;;;;;;;72.47;35.22;;;;;;;;;;5036579;28;20033;-89
2022/03/23 01:48:44;;;;;;;54.13;30.08;;;;;;;;;;5037429;28;20025;-89
2022/03/23 01:51:10;;;;;;;56.53;29.00;;;;;;;;;;5037524;28;20021;-89
2022/03/23 01:53:36;;;;;;;51.65;28.02;;;;;;;;;;5037292;28;20029;-89
2022/03/23 01:56:03;;;;;;;65.53;33.65;;;;;;;;;;5037216;28;20049;-88
2022/03/23 01:58:29;;;;;;;73.00;34.97;;;;;;;;;;5036198;28;20030;-89
2022/03/23 02:00:55;;;;;;;81.78;35.60;;;;;;;;;;5036346;28;20030;-89
2022/03/23 02:03:21;;;;;;;66.00;32.58;;;;;;;;;;5036963;28;20029;-88
2022/03/23 02:05:48;;;;;;;56.80;26.70;;;;;;;;;;5037299;28;20041;-89
2022/03/23 02:08:15;;;;;;;50.75;25.02;;;;;;;;;;5036370;28;20041;-89
2022/03/23 02:10:41;;;;;;;51.08;26.75;;;;;;;;;;5039359;28;20025;-90
2022/03/23 02:13:09;;;;;;;48.20;27.17;;;;;;;;;;5040042;28;20048;-88
2022/03/23 02:15:35;;;;;;;53.22;27.95;;;;;;;;;;5041260;28;20312;-89
2022/03/23 02:18:02;;;;;;;53.58;28.08;;;;;;;;;;5040623;28;20429;-89
2022/03/23 02:20:28;;;;;;;45.78;24.60;;;;;;;;;;5039718;28;20160;-89
2022/03/23 02:22:55;;;;;;;43.78;23.58;;;;;;;;;;5040744;28;20025;-89
2022/03/23 02:25:22;;;;;;;46.63;23.17;;;;;;;;;;5040327;28;20105;-89
2022/03/23 02:27:48;;;;;;;46.22;25.52;;;;;;;;;;5039574;28;20110;-89
2022/03/23 02:30:15;;;;;;;37.58;21.35;;;;;;;;;;5040435;28;20053;-89
2022/03/23 02:32:41;;;;;;;42.08;22.15;;;;;;;;;;5039557;28;20033;-89
2022/03/23 02:35:08;;;;;;;41.08;22.90;;;;;;;;;;5040404;28;20052;-89
2022/03/23 02:37:37;;;;;;;39.67;22.17;;;;;;;;;;5040631;28;20021;-89
2022/03/23 02:40:03;;;;;;;43.90;23.38;;;;;;;;;;5040653;28;20028;-89
2022/03/23 02:42:29;;;;;;;42.08;22.63;;;;;;;;;;5040526;28;20029;-90
2022/03/23 02:44:56;;;;;;;37.25;19.85;;;;;;;;;;5039564;28;20024;-90
2022/03/23 02:47:22;;;;;;;35.10;20.77;;;;;;;;;;5039216;28;20034;-91
2022/03/23 02:49:48;;;;;;;35.50;18.98;;;;;;;;;;5040017;28;20033;-91
2022/03/23 02:52:14;;;;;;;41.92;20.40;;;;;;;;;;5040050;28;20026;-91
2022/03/23 03:03:13;;;;;;;47.80;25.30;;;;;;;;;;5040348;28;20071;-89
2022/03/23 03:05:39;;;;;;;41.45;21.23;;;;;;;;;;5039903;28;20064;-89
2022/03/23 03:10:50;;;;;;;37.55;18.25;;;;;;;;;;5040162;28;20052;-89
2022/03/23 03:13:16;;;;;;;41.67;18.33;;;;;;;;;;5039705;28;20075;-90
2022/03/23 03:15:42;;;;;;;41.65;19.38;;;;;;;;;;5039647;28;20021;-89
2022/03/23 03:18:08;;;;;;;38.55;18.38;;;;;;;;;;5039756;28;20312;-90
2022/03/23 03:20:34;;;;;;;38.13;16.75;;;;;;;;;;5039310;28;20045;-91
2022/03/23 03:23:00;;;;;;;31.13;15.88;;;;;;;;;;5039751;28;20025;-90
2022/03/23 03:25:26;;;;;;;33.28;16.38;;;;;;;;;;5038485;28;20036;-89
2022/03/23 03:27:52;;;;;;;36.22;16.92;;;;;;;;;;5039713;28;20312;-90
2022/03/23 03:30:19;;;;;;;32.63;16.20;;;;;;;;;;5039285;28;20045;-90
2022/03/23 03:32:46;;;;;;;41.28;16.27;;;;;;;;;;5038500;28;20106;-89
2022/03/23 03:35:12;;;;;;;34.30;15.25;;;;;;;;;;5039299;28;20032;-90
2022/03/23 03:37:39;;;;;;;39.72;15.32;;;;;;;;;;5038363;28;20022;-89
2022/03/23 03:40:06;;;;;;;41.88;15.95;;;;;;;;;;5039670;28;20043;-89
2022/03/23 03:42:32;;;;;;;36.95;15.15;;;;;;;;;;5038513;28;20026;-90
2022/03/23 03:44:58;;;;;;;34.75;14.55;;;;;;;;;;5039140;28;20026;-89
2022/03/23 03:47:25;;;;;;;34.78;15.05;;;;;;;;;;5039444;28;20025;-89
2022/03/23 03:49:51;;;;;;;35.40;15.18;;;;;;;;;;5039113;28;20022;-90
2022/03/23 03:52:18;;;;;;;39.70;14.65;;;;;;;;;;5038931;28;20113;-90
2022/03/23 03:54:44;;;;;;;35.08;14.88;;;;;;;;;;5038934;28;20044;-90
2022/03/23 03:57:10;;;;;;;34.20;15.48;;;;;;;;;;5038336;28;20029;-91
2022/03/23 03:59:37;;;;;;;36.13;14.18;;;;;;;;;;5039243;28;20030;-90
2022/03/23 04:02:03;;;;;;;46.40;16.45;;;;;;;;;;5039194;28;20032;-91
2022/03/23 04:04:29;;;;;;;174.88;51.03;;;;;;;;;;5038891;28;20029;-90
2022/03/23 04:06:56;;;;;;;195.50;74.50;;;;;;;;;;5037996;28;20060;-91
2022/03/23 04:09:22;;;;;;;104.68;39.78;;;;;;;;;;5038698;28;20031;-91
2022/03/23 04:11:48;;;;;;;62.30;25.25;;;;;;;;;;5038533;28;20033;-89
2022/03/23 04:14:15;;;;;;;42.83;21.75;;;;;;;;;;5038524;28;20071;-90
2022/03/23 04:16:41;;;;;;;63.67;30.42;;;;;;;;;;5038541;28;20396;-91
2022/03/23 04:19:07;;;;;;;55.28;24.23;;;;;;;;;;5038679;28;20032;-89
2022/03/23 04:21:34;;;;;;;52.30;21.48;;;;;;;;;;5038425;28;20072;-90
2022/03/23 04:24:00;;;;;;;47.17;20.60;;;;;;;;;;5038333;28;20029;-90
2022/03/23 04:26:26;;;;;;;47.05;16.77;;;;;;;;;;5038254;28;20017;-90
2022/03/23 04:28:52;;;;;;;39.20;15.82;;;;;;;;;;5037246;28;20045;-91
2022/03/23 04:31:18;;;;;;;50.78;16.73;;;;;;;;;;5038192;28;20052;-90
2022/03/23 04:33:44;;;;;;;50.90;20.52;;;;;;;;;;5036751;28;20045;-91
2022/03/23 04:36:11;;;;;;;71.97;30.48;;;;;;;;;;5037455;28;20038;-90
2022/03/23 04:38:37;;;;;;;89.68;34.40;;;;;;;;;;5038357;28;20032;-90
2022/03/23 04:41:04;;;;;;;73.55;28.90;;;;;;;;;;5038283;28;20022;-89
2022/03/23 04:43:30;;;;;;;58.92;23.67;;;;;;;;;;5037178;28;20029;-90
2022/03/23 04:45:56;;;;;;;53.83;19.25;;;;;;;;;;5038001;28;20427;-90
2022/03/23 04:48:22;;;;;;;45.50;18.23;;;;;;;;;;5038183;28;20036;-89
2022/03/23 04:50:49;;;;;;;47.63;17.77;;;;;;;;;;5037063;28;20025;-89
2022/03/23 04:53:15;;;;;;;56.40;19.77;;;;;;;;;;5037919;28;20325;-90
2022/03/23 04:55:41;;;;;;;74.55;21.63;;;;;;;;;;5038034;28;20415;-88
2022/03/23 04:58:07;;;;;;;55.15;16.25;;;;;;;;;;5037936;28;20105;-90
2022/03/23 05:00:35;;;;;;;68.88;18.65;;;;;;;;;;5037050;28;20071;-89
2022/03/23 05:03:02;;;;;;;63.88;16.85;;;;;;;;;;5037767;28;20021;-90
2022/03/23 05:05:28;;;;;;;43.05;15.00;;;;;;;;;;5036905;28;20025;-91
2022/03/23 05:07:54;;;;;;;73.28;20.67;;;;;;;;;;5037873;28;20400;-89
2022/03/23 05:10:20;;;;;;;79.43;19.58;;;;;;;;;;5037726;28;20036;-91
2022/03/23 05:12:46;;;;;;;58.35;15.13;;;;;;;;;;5037561;28;20057;-91
2022/03/23 05:15:14;;;;;;;47.72;15.38;;;;;;;;;;5037160;28;20025;-91
2022/03/23 05:17:40;;;;;;;83.80;21.20;;;;;;;;;;5019735;28;20022;-92
2022/03/23 05:20:08;;;;;;;70.50;18.27;;;;;;;;;;5017617;28;20052;-89
2022/03/23 05:22:34;;;;;;;56.80;15.52;;;;;;;;;;5031706;28;20061;-89
2022/03/23 05:25:00;;;;;;;44.22;15.82;;;;;;;;;;5017145;28;20132;-91
2022/03/23 05:37:31;;;;;;;43.47;14.88;;;;;;;;;;5037924;28;20489;-91
2022/03/23 05:39:57;;;;;;;41.80;13.57;;;;;;;;;;5037130;28;20026;-91
2022/03/23 05:42:23;;;;;;;47.50;14.63;;;;;;;;;;5036574;28;20030;-91
2022/03/23 05:44:49;;;;;;;40.70;15.02;;;;;;;;;;5038847;28;20023;-89
2022/03/23 05:47:15;;;;;;;43.22;13.55;;;;;;;;;;5041531;28;20021;-91
2022/03/23 05:49:41;;;;;;;51.33;17.02;;;;;;;;;;5041501;28;20041;-90
2022/03/23 05:52:07;;;;;;;65.95;18.73;;;;;;;;;;5040899;28;20060;-90
2022/03/23 05:54:34;;;;;;;58.30;18.38;;;;;;;;;;5041350;28;20041;-91
2022/03/23 05:57:02;;;;;;;62.63;16.98;;;;;;;;;;5041312;28;20443;-91
2022/03/23 05:59:28;;;;;;;52.40;14.32;;;;;;;;;;5040094;28;20030;-90
2022/03/23 06:01:55;;;;;;;49.55;15.18;;;;;;;;;;5040109;28;20029;-89
2022/03/23 06:04:21;;;;;;;60.95;18.98;;;;;;;;;;5039938;28;20029;-90
2022/03/23 06:06:47;;;;;;;62.35;18.65;;;;;;;;;;5041237;28;20028;-91
2022/03/23 06:09:13;;;;;;;56.78;18.23;;;;;;;;;;5040051;28;20024;-91
2022/03/23 06:11:40;;;;;;;45.70;15.98;;;;;;;;;;5041061;28;20025;-90
2022/03/23 06:14:06;;;;;;;46.83;15.95;;;;;;;;;;5041140;28;20033;-90
2022/03/23 06:16:32;;;;;;;47.05;17.35;;;;;;;;;;5041093;28;20109;-90
2022/03/23 06:19:01;;;;;;;58.67;15.57;;;;;;;;;;5040082;28;20315;-90
2022/03/23 06:21:27;;;;;;;48.40;16.48;;;;;;;;;;5040560;28;20037;-91
2022/03/23 06:23:53;;;;;;;59.53;16.92;;;;;;;;;;5040565;28;20029;-90
2022/03/23 06:26:19;;;;;;;56.38;15.43;;;;;;;;;;5040578;28;20411;-91
2022/03/23 06:28:45;;;;;;;45.70;13.73;;;;;;;;;;5040621;28;20431;-89
2022/03/23 06:31:11;;;;;;;40.97;13.00;;;;;;;;;;5040785;28;20109;-89
2022/03/23 06:33:38;;;;;;;47.40;14.55;;;;;;;;;;5040810;28;20033;-90
2022/03/23 06:36:04;;;;;;;38.67;13.75;;;;;;;;;;5040631;28;20043;-89
2022/03/23 06:38:30;;;;;;;35.30;11.90;;;;;;;;;;5039344;28;20030;-89
2022/03/23 06:40:57;;;;;;;42.35;12.25;;;;;;;;;;5039473;28;20032;-89
2022/03/23 06:43:23;;;;;;;55.30;15.43;;;;;;;;;;5040494;28;20018;-89
2022/03/23 06:45:49;;;;;;;43.85;13.73;;;;;;;;;;5040237;28;20079;-90
2022/03/23 06:48:15;;;;;;;44.13;12.43;;;;;;;;;;5040258;28;20057;-90
2022/03/23 06:50:41;;;;;;;30.50;11.32;;;;;;;;;;5039105;28;20067;-90
2022/03/23 06:53:07;;;;;;;37.95;12.02;;;;;;;;;;5040346;28;20033;-91
2022/03/23 06:55:33;;;;;;;32.45;12.57;;;;;;;;;;5038552;28;20491;-90
2022/03/23 06:57:59;;;;;;;70.43;13.77;;;;;;;;;;5040220;28;20022;-89
2022/03/23 07:00:25;;;;;;;42.42;20.13;;;;;;;;;;5039902;28;20028;-89
2022/03/23 07:02:52;;;;;;;40.67;10.93;;;;;;;;;;5039952;28;20033;-89
2022/03/23 07:05:18;;;;;;;38.80;10.82;;;;;;;;;;5039140;28;20033;-90
2022/03/23 07:10:30;;;;;;;35.22;10.65;;;;;;;;;;5040336;28;20367;-89
2022/03/23 07:12:57;;;;;;;37.72;10.52;;;;;;;;;;5040198;28;20047;-90
2022/03/23 07:15:23;;;;;;;31.67;10.68;;;;;;;;;;5039054;28;20022;-89
2022/03/23 07:17:49;;;;;;;39.60;11.93;;;;;;;;;;5038890;28;20112;-88
2022/03/23 07:20:15;;;;;;;34.10;11.45;;;;;;;;;;5038479;28;20025;-89
2022/03/23 07:22:43;;;;;;;34.08;10.82;;;;;;;;;;5038450;28;20048;-89
2022/03/23 07:25:09;;;;;;;33.67;12.52;;;;;;;;;;5039552;28;20100;-88
2022/03/23 07:27:35;;;;;;;27.88;11.52;;;;;;;;;;5039456;28;20030;-89
2022/03/23 07:30:02;;;;;;;39.17;13.32;;;;;;;;;;5039811;28;20026;-89
2022/03/23 07:32:28;;;;;;;37.80;12.48;;;;;;;;;;5039512;28;20036;-88
2022/03/23 07:34:54;;;;;;;32.95;10.55;;;;;;;;;;5039308;28;20404;-89
2022/03/23 07:37:20;;;;;;;30.08;10.90;;;;;;;;;;5038395;28;20072;-89
2022/03/23 07:39:46;;;;;;;37.80;11.05;;;;;;;;;;5039315;28;20404;-89
2022/03/23 07:42:12;;;;;;;32.90;11.23;;;;;;;;;;5039444;28;20037;-90
2022/03/23 07:44:38;;;;;;;44.22;10.43;;;;;;;;;;5039460;28;20392;-89
2022/03/23 07:47:10;;;;;;;40.80;10.00;;;;;;;;;;5039328;28;20025;-89
2022/03/23 07:49:36;;;;;;;38.50;10.50;;;;;;;;;;5039287;28;20046;-88
2022/03/23 07:52:02;;;;;;;30.70;10.25;;;;;;;;;;5038087;28;20041;-90
2022/03/23 07:54:29;;;;;;;33.72;10.43;;;;;;;;;;5039395;28;20411;-90
2022/03/23 07:56:55;;;;;;;41.80;10.13;;;;;;;;;;5038057;28;20412;-89
2022/03/23 07:59:21;;;;;;;37.10;12.98;;;;;;;;;;5038966;28;20289;-90
2022/03/23 08:01:47;;;;;;;29.58;10.90;;;;;;;;;;5038965;28;20379;-89
2022/03/23 08:04:13;;;;;;;35.85;9.93;;;;;;;;;;5038945;28;20072;-89
2022/03/23 08:06:39;;;;;;;28.77;10.02;;;;;;;;;;5054615;28;20022;-89
2022/03/23 08:09:06;;;;;;;32.33;9.75;;;;;;;;;;5037873;28;20013;-89
2022/03/23 08:11:33;;;;;;;39.40;10.00;;;;;;;;;;5039043;28;20045;-88
2022/03/23 08:13:59;;;;;;;31.02;9.68;;;;;;;;;;5038751;28;20120;-89
2022/03/23 08:16:25;;;;;;;39.50;10.85;;;;;;;;;;5038774;28;20021;-89
2022/03/23 08:18:54;;;;;;;31.92;12.75;;;;;;;;;;5037685;28;20407;-89
2022/03/23 08:21:21;;;;;;;33.70;11.45;;;;;;;;;;5038435;28;20033;-89
2022/03/23 08:23:48;;;;;;;25.17;8.95;;;;;;;;;;5037495;28;20331;-89
2022/03/23 08:26:14;;;;;;;27.40;9.50;;;;;;;;;;5038636;28;20026;-89
2022/03/23 08:28:41;;;;;;;27.67;10.32;;;;;;;;;;5038512;28;20036;-89
2022/03/23 08:31:08;;;;;;;28.15;10.02;;;;;;;;;;5038561;28;20312;-89
2022/03/23 08:33:34;;;;;;;27.08;9.80;;;;;;;;;;5038003;28;20032;-89
2022/03/23 08:36:01;;;;;;;28.25;10.27;;;;;;;;;;5038437;28;20431;-90
2022/03/23 08:38:27;;;;;;;35.75;10.73;;;;;;;;;;5038690;28;20021;-92
2022/03/23 08:40:53;;;;;;;27.00;10.15;;;;;;;;;;5038542;28;20056;-89
2022/03/23 08:43:20;;;;;;;40.60;10.73;;;;;;;;;;5038388;28;20362;-88
2022/03/23 08:45:47;;;;;;;29.58;10.73;;;;;;;;;;5038038;28;20033;-89
2022/03/23 08:48:13;;;;;;;29.98;9.80;;;;;;;;;;5037228;28;20029;-89
2022/03/23 08:50:42;;;;;;;26.02;9.25;;;;;;;;;;5038053;28;20071;-89
2022/03/23 08:53:08;;;;;;;28.70;9.48;;;;;;;;;;5053609;28;20049;-89
2022/03/23 08:55:34;;;;;;;37.25;10.98;;;;;;;;;;5038125;28;20017;-89
2022/03/23 08:58:00;;;;;;;36.90;10.75;;;;;;;;;;5036877;28;20025;-89
2022/03/23 09:00:27;;;;;;;30.48;10.30;;;;;;;;;;5038072;28;20029;-89
2022/03/23 09:02:53;;;;;;;28.05;10.48;;;;;;;;;;5038079;28;20297;-90
2022/03/23 09:05:19;;;;;;;29.10;10.27;;;;;;;;;;5037823;28;20083;-89
2022/03/23 09:07:46;;;;;;;48.40;12.98;;;;;;;;;;5037790;28;20025;-90
2022/03/23 09:10:13;;;;;;;41.85;12.35;;;;;;;;;;5037748;28;20407;-89
2022/03/23 09:12:40;;;;;;;25.63;8.93;;;;;;;;;;5037616;28;20068;-89
2022/03/23 09:15:07;;;;;;;35.63;10.00;;;;;;;;;;5037766;28;20021;-89
2022/03/23 09:17:33;;;;;;;27.65;9.00;;;;;;;;;;5037666;28;20025;-89
2022/03/23 09:20:02;;;;;;;40.28;9.40;;;;;;;;;;5037310;28;20056;-90
2022/03/23 09:22:29;;;;;;;25.20;8.82;;;;;;;;;;5037419;28;20063;-90
2022/03/23 09:24:55;;;;;;;18.83;8.30;;;;;;;;;;5037832;28;20030;-89
2022/03/23 09:27:21;;;;;;;25.25;8.40;;;;;;;;;;5053095;28;20064;-88
2022/03/23 09:29:47;;;;;;;25.27;8.65;;;;;;;;;;5053363;28;20049;-89
2022/03/23 09:32:14;;;;;;;20.83;7.82;;;;;;;;;;5053357;28;20076;-90
2022/03/23 09:34:41;;;;;;;45.22;9.27;;;;;;;;;;5037481;28;20029;-89
2022/03/23 09:39:52;;;;;;;24.55;7.05;;;;;;;;;;5037902;28;20088;-90
2022/03/23 09:42:18;;;;;;;19.25;6.70;;;;;;;;;;5037224;28;20053;-89
2022/03/23 09:44:45;;;;;;;17.75;7.05;;;;;;;;;;5053226;28;20436;-89
2022/03/23 09:47:11;;;;;;;16.95;7.75;;;;;;;;;;5038791;28;20029;-90
2022/03/23 09:49:38;;;;;;;22.83;7.72;;;;;;;;;;5040795;28;20033;-90
2022/03/23 09:52:05;;;;;;;17.80;6.63;;;;;;;;;;5053019;28;20029;-90
2022/03/23 09:54:31;;;;;;;21.52;7.00;;;;;;;;;;5037444;28;20021;-89
2022/03/23 09:56:57;;;;;;;21.25;7.90;;;;;;;;;;5037387;28;20514;-90
2022/03/23 09:59:24;;;;;;;22.67;6.80;;;;;;;;;;5037299;28;20034;-90
2022/03/23 10:01:56;;;;;;;25.13;7.85;;;;;;;;;;5036940;28;20068;-89
2022/03/23 10:04:24;;;;;;;24.50;7.13;;;;;;;;;;5037304;28;20147;-89
2022/03/23 10:07:09;;;;;;;22.25;7.18;;;;;;;;;;5052883;28;20044;-90
2022/03/23 10:09:54;;;;;;;21.42;6.32;;;;;;;;;;5053019;28;20032;-90
2022/03/23 10:12:39;;;;;;;21.70;5.70;;;;;;;;;;5052693;28;20037;-89
2022/03/23 10:15:24;;;;;;;24.48;5.90;;;;;;;;;;5037194;28;20347;-90
2022/03/23 10:17:53;;;;;;;19.17;6.10;;;;;;;;;;5052906;28;20037;-89
2022/03/23 10:20:19;;;;;;;18.38;5.32;;;;;;;;;;5037237;28;20029;-90
2022/03/23 10:22:53;;;;;;;22.35;6.28;;;;;;;;;;5036832;28;20144;-89
2022/03/23 10:25:20;;;;;;;18.58;5.70;;;;;;;;;;5037004;28;20029;-89
2022/03/23 10:27:47;;;;;;;17.85;5.30;;;;;;;;;;5037061;28;20032;-89
2022/03/23 10:30:16;;;;;;;15.57;5.13;;;;;;;;;;5052641;28;20114;-89
2022/03/23 10:32:43;;;;;;;16.98;5.63;;;;;;;;;;5040471;28;20022;-89
2022/03/23 10:35:11;;;;;;;18.33;5.10;;;;;;;;;;5040282;28;20033;-90
2022/03/23 10:37:37;;;;;;;13.05;5.30;;;;;;;;;;5040723;28;20022;-90
2022/03/23 10:40:11;;;;;;;20.55;6.07;;;;;;;;;;5040508;28;20030;-90
2022/03/23 10:42:38;;;;;;;19.35;5.55;;;;;;;;;;5056203;28;20471;-90
2022/03/23 10:45:16;;;;;;;13.38;5.15;;;;;;;;;;5041640;28;20106;-89
2022/03/23 10:47:45;;;;;;;15.07;5.28;;;;;;;;;;5056738;28;20327;-90
2022/03/23 10:50:11;;;;;;;21.80;5.03;;;;;;;;;;5041136;28;20025;-90
2022/03/23 10:52:48;;;;;;;17.83;5.43;;;;;;;;;;5041292;28;20033;-90
2022/03/23 10:55:15;;;;;;;13.55;5.60;;;;;;;;;;5042115;28;20388;-90
2022/03/23 10:57:44;;;;;;;18.38;4.90;;;;;;;;;;5057374;28;20091;-90
2022/03/23 11:00:17;;;;;;;11.90;5.60;;;;;;;;;;5057643;28;20034;-90
2022/03/23 11:02:47;;;;;;;17.10;5.32;;;;;;;;;;5057602;28;20021;-90
2022/03/23 11:05:33;;;;;;;14.10;5.07;;;;;;;;;;5041941;28;20408;-91
2022/03/23 11:08:09;;;;;;;15.90;5.82;;;;;;;;;;5019260;28;20061;-89
2022/03/23 11:16:09;;;;;;;39.10;10.23;;;;;;;;;;5024430;28;20061;-90
2022/03/23 11:18:37;;;;;;;33.30;12.18;;;;;;;;;;5027469;28;20325;-89
2022/03/23 11:21:04;;;;;;;15.43;6.03;;;;;;;;;;5020593;28;20053;-89
2022/03/23 11:23:31;;;;;;;11.30;5.45;;;;;;;;;;5030583;28;20029;-89
2022/03/23 11:26:01;;;;;;;19.98;5.20;;;;;;;;;;5038583;28;20076;-89
2022/03/23 11:28:28;;;;;;;21.38;5.43;;;;;;;;;;5025215;28;20050;-90
2022/03/23 11:30:55;;;;;;;27.00;5.70;;;;;;;;;;5012093;28;20030;-89
2022/03/23 11:33:23;;;;;;;10.32;4.22;;;;;;;;;;5025205;28;20038;-90
2022/03/23 11:35:50;;;;;;;13.35;4.32;;;;;;;;;;5030539;28;20432;-90
2022/03/23 11:38:20;;;;;;;12.55;4.30;;;;;;;;;;5018622;28;20037;-89
2022/03/23 11:40:47;;;;;;;11.95;4.35;;;;;;;;;;5019559;28;20025;-89
2022/03/23 11:43:13;;;;;;;16.88;4.50;;;;;;;;;;5019434;28;20026;-90
2022/03/23 11:45:40;;;;;;;12.95;5.43;;;;;;;;;;5053270;28;20872;-90
2022/03/23 11:48:30;;;;;;;12.68;4.18;;;;;;;;;;5058732;28;20021;-89
2022/03/23 11:51:15;;;;;;;14.15;5.20;;;;;;;;;;5046940;28;20418;-89
2022/03/23 11:54:00;;;;;;;15.32;5.45;;;;;;;;;;5043139;28;20022;-89
2022/03/23 11:56:28;;;;;;;11.10;4.15;;;;;;;;;;5051018;28;20075;-90
2022/03/23 11:58:54;;;;;;;16.52;5.15;;;;;;;;;;5058472;28;20026;-89
2022/03/23 12:01:21;;;;;;;13.98;4.43;;;;;;;;;;5051390;28;20068;-89
2022/03/23 12:04:05;;;;;;;13.00;4.60;;;;;;;;;;5051867;28;20033;-90
2022/03/23 12:06:44;;;;;;;12.73;4.47;;;;;;;;;;5040001;28;20068;-90
2022/03/23 12:09:31;;;;;;;16.30;4.95;;;;;;;;;;5026105;28;20595;-90
2022/03/23 12:11:57;;;;;;;9.60;3.95;;;;;;;;;;5056046;28;20438;-89
2022/03/23 12:14:42;;;;;;;14.75;4.72;;;;;;;;;;5052171;28;20029;-91
2022/03/23 12:17:21;;;;;;;12.95;3.95;;;;;;;;;;5043848;28;20021;-89
2022/03/23 12:19:57;;;;;;;10.77;3.90;;;;;;;;;;5039242;28;20101;-89
2022/03/23 12:22:32;;;;;;;14.13;4.20;;;;;;;;;;5043208;28;20021;-90
2022/03/23 12:25:23;;;;;;;18.17;4.38;;;;;;;;;;5046541;28;20426;-90
2022/03/23 12:27:55;;;;;;;15.15;4.25;;;;;;;;;;5041837;28;20033;-90
2022/03/23 12:30:27;;;;;;;10.85;3.83;;;;;;;;;;5038199;28;20106;-90
2022/03/23 12:32:57;;;;;;;13.52;4.20;;;;;;;;;;5038373;28;20037;-89
2022/03/23 12:35:36;;;;;;;8.65;3.90;;;;;;;;;;5056920;28;20378;-90
2022/03/23 12:38:03;;;;;;;12.65;3.65;;;;;;;;;;5047125;28;20104;-89
2022/03/23 12:40:45;;;;;;;9.30;3.63;;;;;;;;;;5050839;28;20049;-89
2022/03/23 12:43:31;;;;;;;8.25;3.63;;;;;;;;;;5042719;28;20037;-91
2022/03/23 12:45:57;;;;;;;13.73;3.78;;;;;;;;;;5038548;28;20040;-90
2022/03/23 12:59:52;;;;;;;15.88;4.70;;;;;;;;;;5041376;28;20037;-89
2022/03/23 13:02:19;;;;;;;10.27;4.32;;;;;;;;;;5042911;28;20053;-89
2022/03/23 13:04:45;;;;;;;11.95;5.00;;;;;;;;;;5050145;28;20143;-90
2022/03/23 13:07:30;;;;;;;14.07;5.68;;;;;;;;;;5047336;28;20079;-90
2022/03/23 13:09:56;;;;;;;8.00;4.10;;;;;;;;;;5048585;28;20056;-90
2022/03/23 13:12:26;;;;;;;10.88;5.18;;;;;;;;;;5058070;28;20032;-89
2022/03/23 13:14:52;;;;;;;9.38;4.38;;;;;;;;;;5016847;28;20022;-90
2022/03/23 13:17:18;;;;;;;11.90;4.45;;;;;;;;;;5031982;28;20040;-89
2022/03/23 13:19:45;;;;;;;11.98;4.05;;;;;;;;;;5056233;28;20110;-89
2022/03/23 13:22:11;;;;;;;11.95;5.70;;;;;;;;;;5057054;28;20403;-89
2022/03/23 13:24:38;;;;;;;15.68;6.40;;;;;;;;;;5055629;28;20057;-90
2022/03/23 13:27:12;;;;;;;14.43;5.75;;;;;;;;;;5047689;28;20029;-90
2022/03/23 13:29:38;;;;;;;16.13;5.65;;;;;;;;;;5057167;28;20358;-90
2022/03/23 13:32:05;;;;;;;12.02;5.75;;;;;;;;;;5056581;28;20077;-90
2022/03/23 13:34:37;;;;;;;20.08;6.22;;;;;;;;;;5057306;28;20032;-90
2022/03/23 13:37:03;;;;;;;18.92;6.47;;;;;;;;;;5057279;28;20049;-91
2022/03/23 13:39:29;;;;;;;14.35;5.55;;;;;;;;;;5057467;28;20079;-89
2022/03/23 13:44:57;;;;;;;11.38;5.00;;;;;;;;;;5057627;28;20043;-89
2022/03/23 13:47:32;;;;;;;12.63;4.53;;;;;;;;;;5056378;28;20029;-91
2022/03/23 13:49:59;;;;;;;11.40;4.18;;;;;;;;;;5057238;28;20403;-90
2022/03/23 13:52:28;;;;;;;10.55;4.25;;;;;;;;;;5056430;28;20024;-91
2022/03/23 13:54:58;;;;;;;9.88;4.13;;;;;;;;;;5056335;28;20028;-90
2022/03/23 13:57:31;;;;;;;13.82;6.18;;;;;;;;;;5056904;28;20021;-91
2022/03/23 13:59:58;;;;;;;14.38;5.03;;;;;;;;;;5057616;28;20037;-90
2022/03/23 14:02:27;;;;;;;10.82;4.13;;;;;;;;;;5056444;28;20070;-90
2022/03/23 14:04:54;;;;;;;9.57;4.28;;;;;;;;;;5057919;28;20025;-90
2022/03/23 14:07:21;;;;;;;11.38;4.85;;;;;;;;;;5061238;28;20021;-90
2022/03/23 14:09:48;;;;;;;12.95;5.18;;;;;;;;;;5060110;28;20033;-90
2022/03/23 14:12:18;;;;;;;10.73;4.30;;;;;;;;;;5060954;28;20342;-90
2022/03/23 14:14:44;;;;;;;13.13;4.15;;;;;;;;;;5060996;28;20025;-90
2022/03/23 14:17:44;;;;;;;10.63;4.05;;;;;;;;;;5059982;28;20078;-90
2022/03/23 14:20:05;;;;;;;11.07;3.92;;;;;;;;;;5057932;28;20426;-91
2022/03/23 14:22:32;;;;;;;12.52;4.65;;;;;;;;;;5060901;28;20466;-90
2022/03/23 14:24:58;;;;;;;9.68;4.10;;;;;;;;;;5060909;28;20035;-90
2022/03/23 14:27:26;;;;;;;13.35;4.22;;;;;;;;;;5059780;28;20021;-90
2022/03/23 14:32:31;;;;;;;11.48;4.00;;;;;;;;;;5060726;28;20040;-90
2022/03/23 14:34:58;;;;;;;17.02;4.10;;;;;;;;;;5060575;28;20021;-91
2022/03/23 14:37:56;;;;;;;10.20;4.07;;;;;;;;;;5059815;28;20044;-91
2022/03/23 14:40:28;;;;;;;12.02;4.53;;;;;;;;;;5022243;28;20041;-91
2022/03/23 14:42:54;;;;;;;;;;;;;;;;;;5039229;28;20076;-91
2022/03/23 14:45:31;;;;;;;16.10;4.40;;;;;;;;;;5038945;28;19913;-90
2022/03/23 14:47:59;;;;;;;11.20;4.05;;;;;;;;;;5038238;28;20475;-90
2022/03/23 14:50:28;;;;;;;13.63;4.13;;;;;;;;;;5022202;28;20041;-89
2022/03/23 14:52:55;;;;;;;14.43;5.90;;;;;;;;;;5021976;28;20030;-91
2022/03/23 14:55:22;;;;;;;10.07;4.40;;;;;;;;;;5022058;28;20428;-90
2022/03/23 14:57:48;;;;;;;10.30;4.60;;;;;;;;;;5038411;28;20040;-90
2022/03/23 15:00:16;;;;;;;13.73;5.07;;;;;;;;;;5021570;28;20033;-90
2022/03/23 15:02:46;;;;;;;14.13;5.85;;;;;;;;;;5021876;28;20052;-91
2022/03/23 15:13:28;;;;;;;15.20;5.03;;;;;;;;;;5038484;28;20052;-90
2022/03/23 15:15:54;;;;;;;17.23;4.35;;;;;;;;;;5048283;28;20036;-90
2022/03/23 15:18:20;;;;;;;11.40;4.00;;;;;;;;;;5058057;28;20075;-90
2022/03/23 15:20:46;;;;;;;15.45;4.25;;;;;;;;;;5058708;28;20112;-90
2022/03/23 15:23:13;;;;;;;12.00;4.93;;;;;;;;;;5058688;28;20036;-90
2022/03/23 15:25:39;;;;;;;11.95;3.78;;;;;;;;;;5059683;28;20025;-90